Time;durP1;ratioP1;P1;durP2;ratioP2;P2;SDS_P1;SDS_P2;PMS_P1;PMS_P2;Temp;Humidity;BMP_temperature;BMP_pressure;BME280_temperature;BME280_humidity;BME280_pressure;Samples;Min_cycle;Max_cycle;Signal;HPM_P1;HPM_P2
2022/09/04 00:01:18;;;;;;;;;;;;;;;14.73;100.00;98408.87;1710522;82;21623;-86
2022/09/04 00:03:48;;;;;;;;;;;;;;;14.54;100.00;98408.34;1709179;82;26099;-87
2022/09/04 00:06:19;;;;;;;;;;;;;;;14.29;100.00;98413.19;1742223;81;24446;-86
2022/09/04 00:09:07;;;;;;;;;;;;;;;14.21;100.00;98412.51;1709035;82;20341;-87
2022/09/04 00:11:37;;;;;;;;;;;;;;;14.28;100.00;98412.34;1709950;82;20712;-86
2022/09/04 00:14:10;;;;;;;;;;;;;;;14.18;100.00;98418.05;1709382;82;22080;-87
2022/09/04 00:16:41;;;;;;;;;;;;;;;14.05;100.00;98418.72;1690541;82;25995;-87
2022/09/04 00:19:15;;;;;;;;;;;;;;;13.93;100.00;98416.63;1709669;82;24695;-86
2022/09/04 00:21:46;;;;;;;;;;;;;;;13.91;100.00;98421.69;1710366;82;20282;-86
2022/09/04 00:24:23;;;;;;;;;;;;;;;14.03;100.00;98418.84;1710752;82;24864;-86
2022/09/04 00:26:53;;;;;;;;;;;;;;;14.13;100.00;98422.36;1709030;82;22070;-85
2022/09/04 00:29:29;;;;;;;;;;;;;;;14.14;100.00;98429.77;1708498;82;25992;-86
2022/09/04 00:32:00;;;;;;;;;;;;;;;14.15;100.00;98429.66;1708717;82;24596;-86
2022/09/04 00:34:28;;;;;;;;;;;;;;;14.19;100.00;98434.17;1711909;82;20250;-86
2022/09/04 00:36:56;;;;;;;;;;;;;;;14.25;100.00;98429.70;1709345;82;24933;-86
2022/09/04 00:39:24;;;;;;;;;;;;;;;14.13;100.00;98426.30;1709399;82;21973;-87
2022/09/04 00:42:01;;;;;;;;;;;;;;;14.00;100.00;98424.84;1707847;82;26807;-87
2022/09/04 00:44:41;;;;;;;;;;;;;;;13.94;100.00;98429.31;1683904;83;23916;-87
2022/09/04 00:47:29;;;;;;;;;;;;;;;13.93;100.00;98435.05;1708367;82;32760;-87
2022/09/04 00:50:01;;;;;;;;;;;;;;;14.01;100.00;98433.94;1707049;82;24775;-87
2022/09/04 00:52:32;;;;;;;;;;;;;;;14.15;100.00;98432.77;1707186;82;22114;-87
2022/09/04 00:55:03;;;;;;;;;;;;;;;14.32;100.00;98433.49;1730087;81;26077;-86
2022/09/04 00:57:48;;;;;;;;;;;;;;;14.46;100.00;98433.17;1739875;81;24667;-87
2022/09/04 01:00:18;;;;;;;;;;;;;;;14.55;100.00;98437.66;1707975;83;20549;-87
2022/09/04 01:02:58;;;;;;;;;;;;;;;14.60;100.00;98446.00;1706698;82;24923;-88
2022/09/04 01:05:32;;;;;;;;;;;;;;;14.53;100.00;98446.17;1709184;82;21994;-88
2022/09/04 01:08:15;;;;;;;;;;;;;;;14.46;100.00;98441.06;1706769;82;26742;-88
2022/09/04 01:10:49;;;;;;;;;;;;;;;14.29;100.00;98442.98;1704142;82;24421;-87
2022/09/04 01:13:17;;;;;;;;;;;;;;;14.17;100.00;98444.01;1708369;82;20259;-88
2022/09/04 01:15:53;;;;;;;;;;;;;;;14.07;100.00;98443.12;1704680;82;25424;-87
2022/09/04 01:18:43;;;;;;;;;;;;;;;14.03;100.00;98441.68;1708484;82;22752;-88
2022/09/04 01:21:26;;;;;;;;;;;;;;;14.09;100.00;98438.54;1706197;83;26004;-87
2022/09/04 01:24:08;;;;;;;;;;;;;;;14.27;100.00;98443.58;1704656;82;24507;-87
2022/09/04 01:26:39;;;;;;;;;;;;;;;14.40;100.00;98437.64;1682316;83;21272;-87
2022/09/04 01:29:13;;;;;;;;;;;;;;;14.51;100.00;98438.06;1710589;82;24762;-88
2022/09/04 01:31:54;;;;;;;;;;;;;;;14.56;100.00;98436.67;1704938;83;22038;-87
2022/09/04 01:34:30;;;;;;;;;;;;;;;14.51;100.00;98439.38;1711432;83;26060;-87
2022/09/04 01:37:00;;;;;;;;;;;;;;;14.32;100.00;98444.02;1639675;86;24508;-87
2022/09/04 01:39:28;;;;;;;;;;;;;;;14.23;100.00;98445.65;1693676;83;20349;-87
2022/09/04 01:42:09;;;;;;;;;;;;;;;14.33;100.00;98442.23;1707225;82;24715;-87
2022/09/04 01:44:36;;;;;;;;;;;;;;;14.41;100.00;98440.63;1707547;83;22059;-87
2022/09/04 01:47:21;;;;;;;;;;;;;;;14.33;100.00;98438.28;1710911;82;26070;-87
2022/09/04 01:49:49;;;;;;;;;;;;;;;14.21;100.00;98437.03;1704364;83;24440;-87
2022/09/04 01:52:21;;;;;;;;;;;;;;;14.20;100.00;98433.20;1705210;83;20260;-87
2022/09/04 01:55:03;;;;;;;;;;;;;;;14.34;100.00;98432.89;1690096;82;24725;-87
2022/09/04 01:57:32;;;;;;;;;;;;;;;14.47;100.00;98434.00;1708863;83;22618;-87
2022/09/04 02:00:09;;;;;;;;;;;;;;;14.45;100.00;98430.20;1707107;82;26216;-86
2022/09/04 02:02:59;;;;;;;;;;;;;;;14.47;100.00;98428.73;1708324;82;24539;-87
2022/09/04 02:05:30;;;;;;;;;;;;;;;14.43;100.00;98429.49;1707161;82;20552;-87
2022/09/04 02:08:16;;;;;;;;;;;;;;;14.31;100.00;98430.98;1706105;82;25628;-87
2022/09/04 02:10:46;;;;;;;;;;;;;;;14.27;100.00;98433.05;1707175;82;21982;-87
2022/09/04 02:13:19;;;;;;;;;;;;;;;14.28;100.00;98432.57;1710298;83;25992;-87
2022/09/04 02:15:58;;;;;;;;;;;;;;;14.21;100.00;98435.72;1706365;82;24440;-87
2022/09/04 02:18:46;;;;;;;;;;;;;;;14.25;100.00;98431.86;1705909;82;20317;-87
2022/09/04 02:21:27;;;;;;;;;;;;;;;14.26;100.00;98441.91;1707467;83;24763;-88
2022/09/04 02:23:55;;;;;;;;;;;;;;;14.37;100.00;98443.66;1706621;82;22142;-86
2022/09/04 02:26:40;;;;;;;;;;;;;;;14.41;100.00;98435.84;1705145;82;22184;-87
2022/09/04 02:29:21;;;;;;;;;;;;;;;14.45;100.00;98439.91;1707568;82;24491;-87
2022/09/04 02:31:52;;;;;;;;;;;;;;;14.34;100.00;98443.91;1734863;81;20326;-87
2022/09/04 02:34:24;;;;;;;;;;;;;;;14.20;100.00;98431.89;1733230;81;24812;-87
2022/09/04 02:36:54;;;;;;;;;;;;;;;14.11;100.00;98430.88;1687580;83;21956;-87
2022/09/04 02:39:39;;;;;;;;;;;;;;;14.08;100.00;98432.92;1738106;81;26001;-86
2022/09/04 02:42:09;;;;;;;;;;;;;;;14.05;100.00;98428.77;1700966;82;20324;-87
2022/09/04 02:44:37;;;;;;;;;;;;;;;14.08;100.00;98428.49;1740935;81;20190;-87
2022/09/04 02:47:14;;;;;;;;;;;;;;;14.13;100.00;98432.88;1747359;81;24712;-87
2022/09/04 02:49:57;;;;;;;;;;;;;;;14.31;100.00;98429.66;1684382;83;22189;-87
2022/09/04 02:52:32;;;;;;;;;;;;;;;14.41;100.00;98420.05;1698623;83;26673;-87
2022/09/04 02:55:22;;;;;;;;;;;;;;;14.32;100.00;98413.75;1701133;82;24442;-87
2022/09/04 02:58:10;;;;;;;;;;;;;;;14.25;100.00;98421.80;1684827;83;20513;-86
2022/09/04 03:00:38;;;;;;;;;;;;;;;14.20;100.00;98422.68;1687624;83;25614;-88
2022/09/04 03:03:25;;;;;;;;;;;;;;;14.16;100.00;98421.28;1675553;84;21976;-87
2022/09/04 03:06:12;;;;;;;;;;;;;;;14.07;100.00;98419.44;1682348;83;26290;-87
2022/09/04 03:08:45;;;;;;;;;;;;;;;13.95;100.00;98413.88;1628550;86;24457;-87
2022/09/04 03:11:16;;;;;;;;;;;;;;;13.89;100.00;98412.59;1630812;86;20330;-87
2022/09/04 03:13:56;;;;;;;;;;;;;;;13.92;100.00;98415.44;1652797;83;24979;-87
2022/09/04 03:16:42;;;;;;;;;;;;;;;14.03;100.00;98413.58;1689132;83;21940;-87
2022/09/04 03:19:22;;;;;;;;;;;;;;;14.06;100.00;98413.34;1687114;83;25933;-87
2022/09/04 03:21:51;;;;;;;;;;;;;;;14.00;100.00;98411.22;1672832;83;20306;-86
2022/09/04 03:24:28;;;;;;;;;;;;;;;13.93;100.00;98410.53;1734311;82;20585;-86
2022/09/04 03:26:56;;;;;;;;;;;;;;;13.87;100.00;98407.94;1681965;83;24770;-86
2022/09/04 03:29:36;;;;;;;;;;;;;;;13.87;100.00;98405.78;1682531;84;22159;-87
2022/09/04 03:32:04;;;;;;;;;;;;;;;13.85;100.00;98407.25;1729364;82;26046;-86
2022/09/04 03:34:37;;;;;;;;;;;;;;;13.87;100.00;98418.45;1685514;83;24447;-86
2022/09/04 03:37:24;;;;;;;;;;;;;;;13.96;100.00;98424.77;1684474;83;20700;-87
2022/09/04 03:39:55;;;;;;;;;;;;;;;14.05;100.00;98422.66;1688276;83;24937;-86
2022/09/04 03:42:39;;;;;;;;;;;;;;;14.07;100.00;98432.08;1682463;83;21979;-87
2022/09/04 03:45:24;;;;;;;;;;;;;;;13.96;100.00;98427.39;1684404;83;26190;-86
2022/09/04 03:48:09;;;;;;;;;;;;;;;13.88;100.00;98428.02;1684490;83;24422;-87
2022/09/04 03:50:55;;;;;;;;;;;;;;;13.80;100.00;98423.89;1691373;83;20226;-87
2022/09/04 03:53:37;;;;;;;;;;;;;;;13.74;100.00;98421.30;1699547;82;24786;-87
2022/09/04 03:56:21;;;;;;;;;;;;;;;13.72;100.00;98428.46;1702649;83;21999;-87
2022/09/04 03:59:04;;;;;;;;;;;;;;;13.73;100.00;98430.14;1701252;82;26109;-86
2022/09/04 04:01:32;;;;;;;;;;;;;;;13.88;100.00;98434.59;1700497;82;24442;-87
2022/09/04 04:04:19;;;;;;;;;;;;;;;14.03;100.00;98437.26;1700510;82;20321;-87
2022/09/04 04:06:47;;;;;;;;;;;;;;;14.00;100.00;98436.69;1698303;82;25682;-87
2022/09/04 04:09:14;;;;;;;;;;;;;;;13.93;100.00;98442.94;1701968;82;22002;-87
2022/09/04 04:11:55;;;;;;;;;;;;;;;14.01;100.00;98451.52;1699664;82;26825;-87
2022/09/04 04:14:39;;;;;;;;;;;;;;;14.07;100.00;98451.81;1704458;82;24443;-88
2022/09/04 04:17:07;;;;;;;;;;;;;;;14.10;100.00;98449.42;1698335;82;20318;-87
2022/09/04 04:19:52;;;;;;;;;;;;;;;14.07;100.00;98447.88;1700519;82;25330;-87
2022/09/04 04:22:19;;;;;;;;;;;;;;;14.10;100.00;98451.58;1701253;82;21979;-87
2022/09/04 04:24:56;;;;;;;;;;;;;;;14.25;100.00;98456.03;1702112;82;27016;-88
2022/09/04 04:27:34;;;;;;;;;;;;;;;14.39;100.00;98457.06;1676742;84;24437;-88
2022/09/04 04:30:13;;;;;;;;;;;;;;;14.52;100.00;98458.98;1685287;84;20220;-86
2022/09/04 04:32:46;;;;;;;;;;;;;;;14.53;100.00;98455.87;1682190;84;24722;-87
2022/09/04 04:35:31;;;;;;;;;;;;;;;14.49;100.00;98460.58;1646771;86;21997;-87
2022/09/04 04:38:08;;;;;;;;;;;;;;;14.33;100.00;98458.86;1647587;85;26058;-86
2022/09/04 04:40:53;;;;;;;;;;;;;;;14.22;100.00;98458.45;1646115;85;23876;-86
2022/09/04 04:43:21;;;;;;;;;;;;;;;14.12;100.00;98459.36;1648173;85;20344;-86
2022/09/04 04:45:55;;;;;;;;;;;;;;;14.02;100.00;98463.72;1646047;85;24778;-87
2022/09/04 04:48:28;;;;;;;;;;;;;;;13.95;100.00;98462.08;1648258;84;22008;-86
2022/09/04 04:51:04;;;;;;;;;;;;;;;13.91;100.00;98469.84;1674281;83;26054;-87
2022/09/04 04:53:59;;;;;;;;;;;;;;;14.06;100.00;98474.34;1685539;83;25155;-86
2022/09/04 04:56:30;;;;;;;;;;;;;;;14.19;100.00;98480.23;1709301;82;20214;-86
2022/09/04 04:59:04;;;;;;;;;;;;;;;14.27;100.00;98480.91;1708415;82;24732;-86
2022/09/04 05:01:35;;;;;;;;;;;;;;;14.26;100.00;98476.13;1707714;82;22633;-86
2022/09/04 05:04:02;;;;;;;;;;;;;;;14.22;100.00;98483.45;1706496;83;26181;-87
2022/09/04 05:06:46;;;;;;;;;;;;;;;14.27;100.00;98484.86;1707293;82;24436;-86
2022/09/04 05:09:16;;;;;;;;;;;;;;;14.42;100.00;98485.75;1709374;83;20316;-87
2022/09/04 05:11:53;;;;;;;;;;;;;;;14.40;100.00;98486.34;1706073;82;24837;-87
2022/09/04 05:14:29;;;;;;;;;;;;;;;14.42;100.00;98497.59;1701399;82;22108;-87
2022/09/04 05:17:06;;;;;;;;;;;;;;;14.59;100.00;98508.86;1703604;82;26062;-87
2022/09/04 05:19:37;;;;;;;;;;;;;;;14.71;100.00;98507.46;1704375;82;25155;-87
2022/09/04 05:22:04;;;;;;;;;;;;;;;14.73;100.00;98516.89;1699216;82;34345;-86
2022/09/04 05:24:32;;;;;;;;;;;;;;;14.78;100.00;98519.99;1706963;83;24993;-87
2022/09/04 05:27:00;;;;;;;;;;;;;;;14.79;100.00;98522.12;1706645;83;22223;-86
2022/09/04 05:29:40;;;;;;;;;;;;;;;14.83;100.00;98522.23;1707712;82;25970;-87
2022/09/04 05:32:08;;;;;;;;;;;;;;;14.75;100.00;98514.13;1674684;83;25260;-87
2022/09/04 05:34:54;;;;;;;;;;;;;;;14.67;100.00;98516.60;1703838;82;21085;-87
2022/09/04 05:37:39;;;;;;;;;;;;;;;14.71;100.00;98510.94;1704911;82;25608;-86
2022/09/04 05:40:13;;;;;;;;;;;;;;;14.67;100.00;98506.06;1708360;83;22004;-86
2022/09/04 05:42:50;;;;;;;;;;;;;;;14.63;100.00;98519.48;1706384;82;25973;-86
2022/09/04 05:45:26;;;;;;;;;;;;;;;14.67;100.00;98520.07;1706930;83;24389;-86
2022/09/04 05:48:00;;;;;;;;;;;;;;;14.76;100.00;98526.34;1705800;82;50652;-86
2022/09/04 05:50:42;;;;;;;;;;;;;;;14.80;100.00;98530.37;1705370;83;25036;-86
2022/09/04 05:53:25;;;;;;;;;;;;;;;14.74;100.00;98529.58;1693879;83;22058;-87
2022/09/04 05:55:53;;;;;;;;;;;;;;;14.67;100.00;98534.56;1695084;84;26043;-87
2022/09/04 05:58:30;;;;;;;;;;;;;;;14.70;100.00;98546.14;1668320;83;24552;-87
2022/09/04 06:01:13;;;;;;;;;;;;;;;14.78;100.00;98544.19;1692254;83;20198;-87
2022/09/04 06:03:53;;;;;;;;;;;;;;;14.83;100.00;98544.14;1650333;85;24798;-86
2022/09/04 06:06:21;;;;;;;;;;;;;;;14.91;100.00;98540.36;1683424;83;22245;-87
2022/09/04 06:08:48;;;;;;;;;;;;;;;15.00;100.00;98544.02;1691555;83;26226;-87
2022/09/04 06:11:33;;;;;;;;;;;;;;;15.11;100.00;98540.45;1695890;83;24488;-87
2022/09/04 06:14:02;;;;;;;;;;;;;;;15.11;100.00;98543.09;1694185;83;20159;-87
2022/09/04 06:16:46;;;;;;;;;;;;;;;15.08;100.00;98548.13;1693154;83;25654;-87
2022/09/04 06:19:14;;;;;;;;;;;;;;;14.96;100.00;98550.02;1693830;83;22054;-87
2022/09/04 06:21:54;;;;;;;;;;;;;;;14.81;100.00;98555.28;1694417;83;26092;-87
2022/09/04 06:24:36;;;;;;;;;;;;;;;14.78;100.00;98558.67;1693854;83;24503;-87
2022/09/04 06:27:03;;;;;;;;;;;;;;;14.87;100.00;98565.30;1695400;83;20274;-86
2022/09/04 06:29:35;;;;;;;;;;;;;;;15.07;100.00;98578.92;1690495;83;24823;-86
2022/09/04 06:32:10;;;;;;;;;;;;;;;15.18;100.00;98587.22;1692165;83;21977;-86
2022/09/04 06:34:39;;;;;;;;;;;;;;;15.17;100.00;98578.95;1694427;83;27148;-86
2022/09/04 06:37:12;;;;;;;;;;;;;;;15.15;100.00;98586.19;1689928;83;25310;-86
2022/09/04 06:39:56;;;;;;;;;;;;;;;15.22;100.00;98589.94;1695540;83;20271;-86
2022/09/04 06:42:24;;;;;;;;;;;;;;;15.33;100.00;98586.38;1694692;83;24902;-86
2022/09/04 06:44:58;;;;;;;;;;;;;;;15.31;100.00;98593.60;1694335;83;22050;-85
2022/09/04 06:47:28;;;;;;;;;;;;;;;15.24;100.00;98602.52;1694701;83;26088;-86
2022/09/04 06:49:59;;;;;;;;;;;;;;;15.29;100.00;98606.91;1695061;83;24350;-86
2022/09/04 06:52:30;;;;;;;;;;;;;;;15.35;100.00;98610.34;1693947;82;20198;-86
2022/09/04 06:55:07;;;;;;;;;;;;;;;15.32;100.00;98617.21;1729419;82;24888;-86
2022/09/04 06:57:47;;;;;;;;;;;;;;;15.14;100.00;98615.30;1732488;82;23098;-86
2022/09/04 07:00:14;;;;;;;;;;;;;;;15.01;100.00;98626.05;1729168;82;26095;-87
2022/09/04 07:02:59;;;;;;;;;;;;;;;15.12;100.00;98619.38;1724314;82;25564;-85
2022/09/04 07:05:44;;;;;;;;;;;;;;;15.21;100.00;98627.84;1692652;83;20376;-86
2022/09/04 07:08:24;;;;;;;;;;;;;;;15.27;100.00;98631.28;1695356;83;24859;-86
2022/09/04 07:11:09;;;;;;;;;;;;;;;15.35;100.00;98639.83;1693999;83;22049;-85
2022/09/04 07:13:39;;;;;;;;;;;;;;;15.37;100.00;98638.74;1691451;83;26652;-85
2022/09/04 07:16:24;;;;;;;;;;;;;;;15.48;100.00;98640.45;1693140;83;25194;-86
2022/09/04 07:18:59;;;;;;;;;;;;;;;15.48;100.00;98638.66;1690936;83;20274;-86
2022/09/04 07:21:39;;;;;;;;;;;;;;;15.47;100.00;98644.89;1690925;83;25053;-86
2022/09/04 07:24:24;;;;;;;;;;;;;;;15.50;100.00;98638.02;1693989;83;22161;-86
2022/09/04 07:26:51;;;;;;;;;;;;;;;15.37;100.00;98644.02;1692438;83;26004;-86
2022/09/04 07:29:36;;;;;;;;;;;;;;;15.33;100.00;98647.86;1695965;83;25047;-86
2022/09/04 07:32:19;;;;;;;;;;;;;;;15.32;100.00;98652.81;1692292;83;20270;-86
2022/09/04 07:35:11;;;;;;;;;;;;;;;15.37;100.00;98656.37;1692021;84;25516;-86
2022/09/04 07:37:46;;;;;;;;;;;;;;;15.53;100.00;98659.87;1690727;83;22149;-86
2022/09/04 07:40:13;;;;;;;;;;;;;;;15.60;100.00;98657.06;1693228;84;26188;-86
2022/09/04 07:42:58;;;;;;;;;;;;;;;15.76;100.00;98663.51;1692717;83;24690;-86
2022/09/04 07:45:38;;;;;;;;;;;;;;;15.92;100.00;98662.16;1726398;82;20323;-86
2022/09/04 07:48:18;;;;;;;;;;;;;;;15.96;100.00;98665.70;1719899;82;24781;-86
2022/09/04 07:50:46;;;;;;;;;;;;;;;16.11;100.00;98673.58;1696777;82;21962;-86
2022/09/04 07:53:18;;;;;;;;;;;;;;;16.25;100.00;98679.81;1706861;82;26019;-86
2022/09/04 07:55:53;;;;;;;;;;;;;;;16.33;100.00;98682.59;1711503;82;25152;-88
2022/09/04 07:58:24;;;;;;;;;;;;;;;16.37;100.00;98685.78;1709165;82;20182;-86
2022/09/04 08:00:52;;;;;;;;;;;;;;;16.37;100.00;98683.14;1707868;82;24845;-86
2022/09/04 08:03:26;;;;;;;;;;;;;;;16.36;100.00;98677.53;1710656;82;22027;-85
2022/09/04 08:06:04;;;;;;;;;;;;;;;16.48;100.00;98686.98;1711575;82;25990;-86
2022/09/04 08:08:38;;;;;;;;;;;;;;;16.54;100.00;98689.55;1679968;83;24472;-86
2022/09/04 08:11:06;;;;;;;;;;;;;;;16.61;100.00;98688.91;1690232;84;20302;-86
2022/09/04 08:13:46;;;;;;;;;;;;;;;16.66;100.00;98689.80;1706076;82;24772;-86
2022/09/04 08:16:13;;;;;;;;;;;;;;;16.67;100.00;98695.44;1697803;83;22056;-86
2022/09/04 08:18:46;;;;;;;;;;;;;;;16.63;100.00;98693.58;1706412;82;26156;-86
2022/09/04 08:21:31;;;;;;;;;;;;;;;16.66;100.00;98696.41;1705291;82;25448;-86
2022/09/04 08:24:00;;;;;;;;;;;;;;;16.71;100.00;98698.15;1680154;83;20669;-86
2022/09/04 08:26:32;;;;;;;;;;;;;;;16.66;100.00;98701.21;1670210;84;24872;-86
2022/09/04 08:29:01;;;;;;;;;;;;;;;16.55;100.00;98709.23;1702966;82;21994;-86
2022/09/04 08:31:29;;;;;;;;;;;;;;;16.43;100.00;98712.13;1703257;84;26022;-86
2022/09/04 08:33:58;;;;;;;;;;;;;;;16.29;100.00;98715.53;1700371;82;25293;-88
2022/09/04 08:36:33;;;;;;;;;;;;;;;16.23;100.00;98711.28;1703006;82;20341;-88
2022/09/04 08:39:08;;;;;;;;;;;;;;;16.22;100.00;98717.52;1702653;82;25556;-88
2022/09/04 08:41:53;;;;;;;;;;;;;;;16.27;100.00;98712.67;1704588;82;21999;-88
2022/09/04 08:44:21;;;;;;;;;;;;;;;16.32;100.00;98717.89;1702134;82;26046;-87
2022/09/04 08:47:00;;;;;;;;;;;;;;;16.33;100.00;98726.66;1698500;82;23831;-88
2022/09/04 08:49:40;;;;;;;;;;;;;;;16.33;100.00;98726.17;1698164;84;20211;-88
2022/09/04 08:52:23;;;;;;;;;;;;;;;16.39;100.00;98725.28;1700023;84;24933;-86
2022/09/04 08:55:02;;;;;;;;;;;;;;;16.42;100.00;98725.02;1695878;82;21993;-86
2022/09/04 08:57:35;;;;;;;;;;;;;;;16.66;100.00;98728.13;1694973;82;27046;-86
2022/09/04 09:00:16;;;;;;;;;;;;;;;16.77;100.00;98721.87;1691665;83;25246;-86
2022/09/04 09:03:00;;;;;;;;;;;;;;;16.78;100.00;98726.19;1708391;83;20313;-86
2022/09/04 09:05:46;;;;;;;;;;;;;;;16.81;100.00;98729.38;1699713;82;24829;-86
2022/09/04 09:08:24;;;;;;;;;;;;;;;16.83;100.00;98726.12;1697377;82;22227;-87
2022/09/04 09:11:08;;;;;;;;;;;;;;;17.11;100.00;98727.08;1704669;82;26588;-87
2022/09/04 09:13:39;;;;;;;;;;;;;;;17.32;100.00;98728.23;1705854;83;24458;-87
2022/09/04 09:16:24;;;;;;;;;;;;;;;17.36;100.00;98722.98;1730386;82;20272;-88
2022/09/04 09:19:09;;;;;;;;;;;;;;;17.33;100.00;98725.94;1691383;82;24822;-87
2022/09/04 09:21:45;;;;;;;;;;;;;;;17.34;100.00;98724.48;1691782;83;22014;-87
2022/09/04 09:24:23;;;;;;;;;;;;;;;17.37;100.00;98724.17;1724102;82;26759;-90
2022/09/04 09:27:13;;;;;;;;;;;;;;;17.48;100.00;98728.47;1684484;83;25332;-89
2022/09/04 09:33:00;;;;;;;;;;;;;;;17.56;100.00;98722.79;1728212;82;24907;-89
2022/09/04 09:35:54;;;;;;;;;;;;;;;17.43;100.00;98721.45;1690177;83;22044;-89
2022/09/04 09:38:38;;;;;;;;;;;;;;;17.53;100.00;98726.22;1685822;83;26821;-90
2022/09/04 09:41:11;;;;;;;;;;;;;;;17.65;100.00;98726.92;1682057;83;24471;-87
2022/09/04 09:43:47;;;;;;;;;;;;;;;17.69;100.00;98730.45;1685444;84;20183;-87
2022/09/04 09:49:05;;;;;;;;;;;;;;;17.71;100.00;98728.50;1728077;82;22063;-87
2022/09/04 09:51:49;;;;;;;;;;;;;;;17.76;100.00;98736.01;1727091;82;26042;-87
2022/09/04 09:54:33;;;;;;;;;;;;;;;17.81;100.00;98738.56;1732681;82;24635;-87
2022/09/04 09:57:04;;;;;;;;;;;;;;;17.86;100.00;98743.42;1677690;83;20237;-87
2022/09/04 09:59:40;;;;;;;;;;;;;;;17.92;100.00;98748.98;1729872;82;24761;-87
2022/09/04 10:02:17;;;;;;;;;;;;;;;18.00;100.00;98746.09;1690410;83;22028;-88
2022/09/04 10:04:45;;;;;;;;;;;;;;;18.03;100.00;98754.58;1685815;84;26013;-88
2022/09/04 10:07:35;;;;;;;;;;;;;;;17.97;100.00;98753.34;1695524;83;25139;-88
2022/09/04 10:10:20;;;;;;;;;;;;;;;17.85;100.00;98745.23;1699372;83;20289;-88
2022/09/04 10:12:49;;;;;;;;;;;;;;;17.79;100.00;98749.78;1690900;83;24794;-88
2022/09/04 10:15:28;;;;;;;;;;;;;;;17.84;100.00;98751.50;1692691;84;22878;-88
2022/09/04 10:18:00;;;;;;;;;;;;;;;17.75;100.00;98752.38;1689887;83;26169;-89
2022/09/04 10:20:32;;;;;;;;;;;;;;;17.69;100.00;98754.77;1691551;83;24486;-88
2022/09/04 10:23:02;;;;;;;;;;;;;;;17.67;100.00;98755.42;1693293;83;20227;-88
2022/09/04 10:25:30;;;;;;;;;;;;;;;17.66;100.00;98755.06;1690380;83;24989;-88
2022/09/04 10:28:15;;;;;;;;;;;;;;;17.63;100.00;98748.72;1688390;84;21631;-89
2022/09/04 10:30:59;;;;;;;;;;;;;;;17.57;100.00;98750.09;1695989;82;26008;-88
2022/09/04 10:33:45;;;;;;;;;;;;;;;17.54;100.00;98755.20;1686685;83;24447;-88
2022/09/04 10:36:31;;;;;;;;;;;;;;;17.54;100.00;98754.36;1691610;83;20251;-88
2022/09/04 10:41:57;;;;;;;;;;;;;;;17.47;100.00;98756.73;1682330;83;21979;-88
2022/09/04 10:44:46;;;;;;;;;;;;;;;17.47;100.00;98756.73;1692030;84;26040;-89
2022/09/04 10:47:17;;;;;;;;;;;;;;;17.45;100.00;98761.84;1688381;84;24417;-87
2022/09/04 10:49:50;;;;;;;;;;;;;;;17.44;100.00;98763.66;1671691;84;20242;-88
2022/09/04 10:52:30;;;;;;;;;;;;;;;17.45;100.00;98769.78;1690418;83;24903;-89
2022/09/04 10:55:13;;;;;;;;;;;;;;;17.50;100.00;98766.22;1658807;83;21997;-89
2022/09/04 11:00:48;;;;;;;;;;;;;;;17.58;100.00;98771.62;1692180;84;24559;-88
2022/09/04 11:03:26;;;;;;;;;;;;;;;17.67;100.00;98766.84;1694697;82;20405;-88
2022/09/04 11:06:24;;;;;;;;;;;;;;;17.69;100.00;98770.16;1682561;83;24889;-88
2022/09/04 11:08:50;;;;;;;;;;;;;;;17.69;100.00;98769.32;1689032;84;22569;-89
2022/09/04 11:11:18;;;;;;;;;;;;;;;17.67;100.00;98766.00;1689102;83;26131;-88
2022/09/04 11:14:06;;;;;;;;;;;;;;;17.63;100.00;98776.51;1685727;83;24440;-88
2022/09/04 11:16:52;;;;;;;;;;;;;;;17.61;100.00;98773.19;1707494;83;20178;-88
2022/09/04 11:19:27;;;;;;;;;;;;;;;17.67;100.00;98775.27;1730213;82;24831;-87
2022/09/04 11:22:01;;;;;;;;;;;;;;;17.77;100.00;98778.72;1675290;85;21381;-88
2022/09/04 11:24:36;;;;;;;;;;;;;;;17.78;100.00;98771.94;1692859;83;26154;-88
2022/09/04 11:27:14;;;;;;;;;;;;;;;17.81;100.00;98765.53;1695549;82;24540;-88
2022/09/04 11:29:42;;;;;;;;;;;;;;;17.86;100.00;98769.41;1732087;82;20222;-88
2022/09/04 11:32:12;;;;;;;;;;;;;;;17.91;100.00;98758.37;1671215;85;24745;-88
2022/09/04 11:34:58;;;;;;;;;;;;;;;17.95;100.00;98760.59;1692822;83;20524;-88
2022/09/04 11:37:43;;;;;;;;;;;;;;;18.01;100.00;98768.93;1689018;83;26154;-88
2022/09/04 11:40:26;;;;;;;;;;;;;;;18.04;100.00;98761.55;1689969;83;24534;-88
2022/09/04 11:42:59;;;;;;;;;;;;;;;18.01;100.00;98762.30;1691915;82;20231;-88
2022/09/04 11:45:41;;;;;;;;;;;;;;;17.93;100.00;98772.33;1687866;82;24921;-88
2022/09/04 11:48:25;;;;;;;;;;;;;;;17.85;100.00;98771.71;1692987;82;22563;-89
2022/09/04 11:51:06;;;;;;;;;;;;;;;17.77;100.00;98774.27;1692390;83;26092;-88
2022/09/04 11:53:34;;;;;;;;;;;;;;;17.78;100.00;98779.88;1691050;83;24613;-89
2022/09/04 11:56:19;;;;;;;;;;;;;;;17.79;100.00;98780.23;1695328;84;20348;-88
2022/09/04 11:58:51;;;;;;;;;;;;;;;17.76;100.00;98783.17;1673640;84;24846;-89
2022/09/04 12:01:25;;;;;;;;;;;;;;;17.69;100.00;98778.09;1694610;83;22001;-89
2022/09/04 12:03:53;;;;;;;;;;;;;;;17.70;100.00;98778.45;1690048;83;26004;-88
2022/09/04 12:06:42;;;;;;;;;;;;;;;17.78;100.00;98773.26;1696018;83;24562;-88
2022/09/04 12:09:12;;;;;;;;;;;;;;;17.85;100.00;98774.84;1695977;83;20226;-88
2022/09/04 12:11:59;;;;;;;;;;;;;;;17.91;100.00;98771.14;1692030;83;24740;-88
2022/09/04 12:14:32;;;;;;;;;;;;;;;17.94;100.00;98774.00;1691360;83;22020;-88
2022/09/04 12:17:14;;;;;;;;;;;;;;;17.98;100.00;98766.94;1674546;84;24451;-88
2022/09/04 12:19:41;;;;;;;;;;;;;;;18.08;100.00;98767.38;1694853;83;24426;-88
2022/09/04 12:22:30;;;;;;;;;;;;;;;18.15;100.00;98762.68;1694687;83;20485;-88
2022/09/04 12:24:58;;;;;;;;;;;;;;;18.16;100.00;98764.84;1695916;83;24886;-88
2022/09/04 12:27:25;;;;;;;;;;;;;;;18.20;100.00;98766.21;1693666;83;22095;-88
2022/09/04 12:30:16;;;;;;;;;;;;;;;18.22;100.00;98765.06;1696077;83;25923;-88
2022/09/04 12:33:00;;;;;;;;;;;;;;;18.18;100.00;98769.00;1697205;83;24435;-88
2022/09/04 12:35:28;;;;;;;;;;;;;;;18.12;100.00;98772.23;1696676;83;20280;-88
2022/09/04 12:38:13;;;;;;;;;;;;;;;18.11;100.00;98772.40;1694022;84;24797;-87
2022/09/04 12:40:41;;;;;;;;;;;;;;;18.15;100.00;98773.77;1689803;83;22065;-89
2022/09/04 12:43:15;;;;;;;;;;;;;;;18.18;100.00;98771.65;1690314;83;26047;-88
2022/09/04 12:45:53;;;;;;;;;;;;;;;18.19;100.00;98777.78;1683747;83;24609;-88
2022/09/04 12:48:21;;;;;;;;;;;;;;;18.18;100.00;98777.44;1688652;84;20258;-87
2022/09/04 12:50:48;;;;;;;;;;;;;;;18.14;100.00;98779.55;1691989;84;24869;-88
2022/09/04 12:53:24;;;;;;;;;;;;;;;18.11;100.00;98778.50;1686546;83;21971;-88
2022/09/04 12:55:55;;;;;;;;;;;;;;;18.15;100.00;98779.06;1709550;82;27043;-88
2022/09/04 12:58:32;;;;;;;;;;;;;;;18.16;100.00;98783.39;1706907;83;25271;-87
2022/09/04 13:01:09;;;;;;;;;;;;;;;18.20;100.00;98788.73;1709240;82;20456;-88
2022/09/04 13:03:51;;;;;;;;;;;;;;;18.18;100.00;98795.98;1705508;82;24697;-87
2022/09/04 13:06:22;;;;;;;;;;;;;;;18.17;100.00;98796.95;1735196;81;23168;-87
2022/09/04 13:08:54;;;;;;;;;;;;;;;18.19;100.00;98800.30;1733795;81;26047;-87
2022/09/04 13:11:33;;;;;;;;;;;;;;;18.25;100.00;98801.05;1701897;82;25344;-87
2022/09/04 13:14:18;;;;;;;;;;;;;;;18.21;100.00;98804.98;1708438;83;20159;-87
2022/09/04 13:16:49;;;;;;;;;;;;;;;18.18;100.00;98803.92;1708322;82;24913;-87
2022/09/04 13:19:34;;;;;;;;;;;;;;;18.14;100.00;98799.91;1668889;84;22811;-87
2022/09/04 13:25:07;;;;;;;;;;;;;;;18.10;100.00;98798.05;1708425;82;24780;-87
2022/09/04 13:27:49;;;;;;;;;;;;;;;18.12;100.00;98792.58;1710180;82;20253;-87
2022/09/04 13:30:24;;;;;;;;;;;;;;;18.14;100.00;98789.31;1709340;82;24932;-87
2022/09/04 13:33:03;;;;;;;;;;;;;;;18.16;100.00;98787.36;1707797;82;22078;-87
2022/09/04 13:35:40;;;;;;;;;;;;;;;18.16;100.00;98781.58;1709857;82;25971;-87
2022/09/04 13:38:24;;;;;;;;;;;;;;;18.21;100.00;98782.45;1708855;82;24405;-87